sensor_id;sensor_type;location;lat;lon;timestamp;temperature;humidity
54824;DHT22;40724;53.196;5.980;2023-02-28T10:46:50;4.70;99.90
54824;DHT22;40724;53.196;5.980;2023-02-28T10:49:20;5.30;99.90
54824;DHT22;40724;53.196;5.980;2023-02-28T10:51:51;5.30;99.90
54824;DHT22;40724;53.196;5.980;2023-02-28T10:57:18;5.40;99.90
54824;DHT22;40724;53.196;5.980;2023-02-28T11:07:25;5.50;99.90
54824;DHT22;40724;53.196;5.980;2023-02-28T11:09:56;5.70;99.90
54824;DHT22;40724;53.196;5.980;2023-02-28T11:12:34;5.80;99.90
54824;DHT22;40724;53.196;5.980;2023-02-28T11:17:31;5.80;99.90
54824;DHT22;40724;53.196;5.980;2023-02-28T11:20:10;5.90;99.90
54824;DHT22;40724;53.196;5.980;2023-02-28T11:22:44;6.00;99.90
54824;DHT22;40724;53.196;5.980;2023-02-28T11:25:23;6.10;99.90
54824;DHT22;40724;53.196;5.980;2023-02-28T11:27:51;6.10;99.90
54824;DHT22;40724;53.196;5.980;2023-02-28T11:32:57;6.20;99.90
54824;DHT22;40724;53.196;5.980;2023-02-28T11:35:39;6.30;99.90
54824;DHT22;40724;53.196;5.980;2023-02-28T11:38:11;6.30;99.90
54824;DHT22;40724;53.196;5.980;2023-02-28T11:43:26;6.40;99.90
54824;DHT22;40724;53.196;5.980;2023-02-28T11:51:35;6.50;99.90
54824;DHT22;40724;53.196;5.980;2023-02-28T11:56:52;6.60;99.90
54824;DHT22;40724;53.196;5.980;2023-02-28T12:11:06;6.70;99.90
54824;DHT22;40724;53.196;5.980;2023-02-28T12:14:23;6.80;99.90
54824;DHT22;40724;53.196;5.980;2023-02-28T12:17:05;6.90;99.90
54824;DHT22;40724;53.196;5.980;2023-02-28T12:22:28;6.90;99.90
54824;DHT22;40724;53.196;5.980;2023-02-28T12:27:51;7.20;99.90
54824;DHT22;40724;53.196;5.980;2023-02-28T12:30:27;7.20;99.90
54824;DHT22;40724;53.196;5.980;2023-02-28T12:33:04;7.20;99.90
54824;DHT22;40724;53.196;5.980;2023-02-28T12:50:47;7.60;99.90
54824;DHT22;40724;53.196;5.980;2023-02-28T13:13:29;7.70;99.90
54824;DHT22;40724;53.196;5.980;2023-02-28T13:16:05;8.30;99.90
54824;DHT22;40724;53.196;5.980;2023-02-28T13:18:37;8.30;99.90
54824;DHT22;40724;53.196;5.980;2023-02-28T13:21:08;8.30;99.90
54824;DHT22;40724;53.196;5.980;2023-02-28T13:23:57;8.30;99.90
54824;DHT22;40724;53.196;5.980;2023-02-28T13:29:01;8.30;99.90
54824;DHT22;40724;53.196;5.980;2023-02-28T13:31:29;8.30;99.90
54824;DHT22;40724;53.196;5.980;2023-02-28T13:36:31;8.30;99.90
54824;DHT22;40724;53.196;5.980;2023-02-28T13:39:44;8.30;99.90
54824;DHT22;40724;53.196;5.980;2023-02-28T13:41:47;8.30;99.90
54824;DHT22;40724;53.196;5.980;2023-02-28T13:44:20;8.40;99.90
54824;DHT22;40724;53.196;5.980;2023-02-28T14:03:32;8.40;99.90
54824;DHT22;40724;53.196;5.980;2023-02-28T14:06:14;8.40;99.90
54824;DHT22;40724;53.196;5.980;2023-02-28T14:08:55;8.30;99.90
54824;DHT22;40724;53.196;5.980;2023-02-28T14:11:28;8.30;99.90
54824;DHT22;40724;53.196;5.980;2023-02-28T14:13:54;8.20;99.90
54824;DHT22;40724;53.196;5.980;2023-02-28T14:16:25;8.30;99.90
54824;DHT22;40724;53.196;5.980;2023-02-28T14:18:56;8.20;99.90
54824;DHT22;40724;53.196;5.980;2023-02-28T14:37:53;8.10;99.90
54824;DHT22;40724;53.196;5.980;2023-02-28T14:40:29;8.10;99.90
54824;DHT22;40724;53.196;5.980;2023-02-28T14:42:57;8.00;99.90
54824;DHT22;40724;53.196;5.980;2023-02-28T14:45:28;8.00;99.90
54824;DHT22;40724;53.196;5.980;2023-02-28T14:47:57;8.00;99.90
54824;DHT22;40724;53.196;5.980;2023-02-28T14:50:31;8.00;99.90
54824;DHT22;40724;53.196;5.980;2023-02-28T14:52:58;7.90;99.90
54824;DHT22;40724;53.196;5.980;2023-02-28T14:55:34;7.90;99.90
54824;DHT22;40724;53.196;5.980;2023-02-28T14:58:02;7.90;99.90
54824;DHT22;40724;53.196;5.980;2023-02-28T15:00:35;7.80;99.90
54824;DHT22;40724;53.196;5.980;2023-02-28T15:03:23;7.80;99.90
54824;DHT22;40724;53.196;5.980;2023-02-28T15:06:02;7.80;99.90
54824;DHT22;40724;53.196;5.980;2023-02-28T15:08:29;7.80;99.90
54824;DHT22;40724;53.196;5.980;2023-02-28T15:11:00;7.70;99.90
54824;DHT22;40724;53.196;5.980;2023-02-28T15:16:08;7.60;99.90
54824;DHT22;40724;53.196;5.980;2023-02-28T15:18:50;7.60;99.90
54824;DHT22;40724;53.196;5.980;2023-02-28T15:21:24;7.60;99.90
54824;DHT22;40724;53.196;5.980;2023-02-28T16:54:01;7.60;99.90
54824;DHT22;40724;53.196;5.980;2023-02-28T17:03:49;6.60;99.90
54824;DHT22;40724;53.196;5.980;2023-02-28T17:06:26;6.50;99.90
54824;DHT22;40724;53.196;5.980;2023-02-28T17:08:59;6.50;99.90
54824;DHT22;40724;53.196;5.980;2023-02-28T17:11:26;6.40;99.90
54824;DHT22;40724;53.196;5.980;2023-02-28T17:13:52;6.40;99.90
54824;DHT22;40724;53.196;5.980;2023-02-28T17:16:27;6.40;99.90
54824;DHT22;40724;53.196;5.980;2023-02-28T17:18:56;6.30;99.90
54824;DHT22;40724;53.196;5.980;2023-02-28T17:21:22;6.30;99.90
54824;DHT22;40724;53.196;5.980;2023-02-28T17:53:11;6.30;99.90
54824;DHT22;40724;53.196;5.980;2023-02-28T17:55:36;5.60;99.90
54824;DHT22;40724;53.196;5.980;2023-02-28T17:58:03;5.50;99.90
